Time,TemperatureF,DewpointF,PressureIn,WindDirection,WindDirectionDegrees,WindSpeedMPH,WindSpeedGustMPH,Humidity,HourlyPrecipIn,Conditions,Clouds,dailyrainin,SoftwareType,DateUTC
2013-09-15 00:01:00,59.5,50.5,29.56,NW,315,4.5,4.5,72,0.00,,---,0.00,VWS V14.00,2013-09-15 07:01:00,
2013-09-15 00:06:00,59.5,50.5,29.53,NW,315,2.0,2.0,72,0.00,,---,0.00,VWS V14.00,2013-09-15 07:06:00,
2013-09-15 00:11:00,59.4,50.7,29.53,NW,315,3.8,3.8,73,0.00,,---,0.00,VWS V14.00,2013-09-15 07:11:00,
2013-09-15 00:16:00,59.4,50.7,29.53,WNW,292,2.9,2.9,73,0.00,,---,0.00,VWS V14.00,2013-09-15 07:16:00,
2013-09-15 00:21:00,59.4,50.7,29.53,WNW,292,3.6,3.6,73,0.00,,---,0.00,VWS V14.00,2013-09-15 07:21:00,
2013-09-15 00:27:00,59.2,50.5,29.53,WNW,292,3.8,3.8,73,0.00,,---,0.00,VWS V14.00,2013-09-15 07:27:00,
2013-09-15 00:33:00,59.2,50.5,29.53,WNW,292,2.5,2.5,73,0.00,,---,0.00,VWS V14.00,2013-09-15 07:33:00,
2013-09-15 00:38:00,59.0,50.4,29.53,WNW,292,3.4,3.4,73,0.00,,---,0.00,VWS V14.00,2013-09-15 07:38:00,
2013-09-15 00:43:00,59.0,50.7,29.53,WNW,292,2.9,2.9,74,0.00,,---,0.00,VWS V14.00,2013-09-15 07:43:00,
2013-09-15 00:48:00,59.0,50.7,29.53,WNW,292,4.0,4.0,74,0.00,,---,0.00,VWS V14.00,2013-09-15 07:48:00,
2013-09-15 00:53:00,59.0,50.7,29.53,NW,315,4.7,4.7,74,0.00,,---,0.00,VWS V14.00,2013-09-15 07:53:00,
2013-09-15 00:58:00,59.0,50.7,29.53,NNW,338,3.4,3.4,74,0.00,,---,0.00,VWS V14.00,2013-09-15 07:58:00,
2013-09-15 01:04:00,59.0,50.7,29.53,WNW,292,3.1,3.1,74,0.00,,---,0.00,VWS V14.00,2013-09-15 08:04:00,
2013-09-15 01:09:00,59.0,50.7,29.53,WNW,292,3.4,3.8,74,0.00,,---,0.00,VWS V14.00,2013-09-15 08:09:00,
2013-09-15 01:14:00,59.0,50.7,29.53,NW,315,4.3,4.3,74,0.00,,---,0.00,VWS V14.00,2013-09-15 08:14:00,
2013-09-15 01:19:00,59.0,50.7,29.53,NW,315,3.1,3.1,74,0.00,,---,0.00,VWS V14.00,2013-09-15 08:19:00,
2013-09-15 01:24:00,59.0,50.7,29.53,NW,315,9.0,9.0,74,0.00,,---,0.00,VWS V14.00,2013-09-15 08:24:00,
2013-09-15 01:29:00,59.0,50.7,29.53,NW,315,4.3,4.3,74,0.00,,---,0.00,VWS V14.00,2013-09-15 08:29:00,
2013-09-15 01:34:00,59.0,50.7,29.56,NNW,338,2.5,3.8,74,0.00,,---,0.00,VWS V14.00,2013-09-15 08:34:00,
2013-09-15 01:39:00,58.8,51.3,29.56,NW,315,2.5,2.5,76,0.00,,---,0.00,VWS V14.00,2013-09-15 08:39:00,
2013-09-15 01:44:00,58.8,51.3,29.56,WNW,292,3.4,3.4,76,0.00,,---,0.00,VWS V14.00,2013-09-15 08:44:00,
2013-09-15 01:49:00,58.8,51.6,29.53,NW,315,4.7,4.7,77,0.00,,---,0.00,VWS V14.00,2013-09-15 08:49:00,
2013-09-15 01:54:00,59.0,51.5,29.53,WNW,292,2.5,2.5,76,0.00,,---,0.00,VWS V14.00,2013-09-15 08:54:00,
2013-09-15 01:59:00,58.8,51.6,29.53,WNW,292,2.7,2.7,77,0.00,,---,0.00,VWS V14.00,2013-09-15 08:59:00,
2013-09-15 02:04:00,59.0,51.8,29.53,WNW,292,1.3,2.0,77,0.00,,---,0.00,VWS V14.00,2013-09-15 09:04:00,
2013-09-15 02:09:00,59.0,51.8,29.53,NW,315,3.1,3.1,77,0.00,,---,0.00,VWS V14.00,2013-09-15 09:09:00,
2013-09-15 02:14:00,59.0,51.8,29.53,WNW,292,2.9,2.9,77,0.00,,---,0.00,VWS V14.00,2013-09-15 09:14:00,
2013-09-15 02:19:00,59.0,51.8,29.53,WNW,292,5.6,5.6,77,0.00,,---,0.00,VWS V14.00,2013-09-15 09:19:00,
2013-09-15 02:24:00,58.6,51.5,29.53,NW,315,3.1,5.8,77,0.00,,---,0.00,VWS V14.00,2013-09-15 09:24:00,
2013-09-15 02:29:00,58.6,51.5,29.53,NW,315,3.6,3.6,77,0.00,,---,0.00,VWS V14.00,2013-09-15 09:29:00,
2013-09-15 02:34:00,58.5,51.3,29.53,NW,315,4.3,4.3,77,0.00,,---,0.00,VWS V14.00,2013-09-15 09:34:00,
2013-09-15 02:39:00,58.5,51.3,29.53,NW,315,2.7,2.7,77,0.00,,---,0.00,VWS V14.00,2013-09-15 09:39:00,
2013-09-15 02:45:00,57.9,50.8,29.53,WNW,292,2.5,2.5,77,0.00,,---,0.00,VWS V14.00,2013-09-15 09:45:00,
2013-09-15 02:50:00,57.9,51.1,29.53,NW,315,3.6,3.6,78,0.00,,---,0.00,VWS V14.00,2013-09-15 09:50:00,
2013-09-15 02:55:00,57.7,50.9,29.53,NW,315,4.7,4.9,78,0.00,,---,0.00,VWS V14.00,2013-09-15 09:55:00,
2013-09-15 03:00:00,57.7,50.9,29.53,NW,315,4.3,4.3,78,0.00,,---,0.00,VWS V14.00,2013-09-15 10:00:00,
2013-09-15 03:05:00,57.7,50.9,29.53,WNW,292,3.8,4.3,78,0.00,,---,0.00,VWS V14.00,2013-09-15 10:05:00,
2013-09-15 03:10:00,57.7,50.9,29.53,NNW,338,4.3,4.3,78,0.00,,---,0.00,VWS V14.00,2013-09-15 10:10:00,
2013-09-15 03:15:00,57.6,51.1,29.53,NW,315,5.4,5.4,79,0.00,,---,0.00,VWS V14.00,2013-09-15 10:15:00,
2013-09-15 03:20:00,57.6,51.1,29.56,NW,315,3.4,5.6,79,0.00,,---,0.00,VWS V14.00,2013-09-15 10:20:00,
2013-09-15 03:25:00,57.6,51.1,29.56,NW,315,4.9,4.9,79,0.00,,---,0.00,VWS V14.00,2013-09-15 10:25:00,
2013-09-15 03:30:00,57.7,51.3,29.56,NW,315,3.4,3.6,79,0.00,,---,0.00,VWS V14.00,2013-09-15 10:30:00,
2013-09-15 03:35:00,58.1,52.0,29.53,NW,315,4.5,4.5,80,0.00,,---,0.00,VWS V14.00,2013-09-15 10:35:00,
2013-09-15 03:40:00,58.1,52.0,29.53,West,270,3.6,6.5,80,0.00,,---,0.00,VWS V14.00,2013-09-15 10:40:00,
2013-09-15 03:45:00,58.5,52.3,29.53,WNW,292,4.7,4.7,80,0.00,,---,0.00,VWS V14.00,2013-09-15 10:45:00,
2013-09-15 03:51:00,58.5,52.3,29.56,NNW,338,3.4,3.4,80,0.00,,---,0.00,VWS V14.00,2013-09-15 10:51:00,
2013-09-15 03:56:00,58.8,52.7,29.56,NW,315,1.3,1.3,80,0.00,,---,0.00,VWS V14.00,2013-09-15 10:56:00,
2013-09-15 04:01:00,59.0,52.8,29.56,WNW,292,2.0,2.0,80,0.00,,---,0.00,VWS V14.00,2013-09-15 11:01:00,
2013-09-15 04:06:00,59.0,52.8,29.56,WNW,292,2.0,2.0,80,0.00,,---,0.00,VWS V14.00,2013-09-15 11:06:00,
2013-09-15 04:11:00,59.2,53.0,29.53,NW,315,2.5,2.5,80,0.00,,---,0.00,VWS V14.00,2013-09-15 11:11:00,
2013-09-15 04:16:00,59.2,53.0,29.53,NW,315,3.1,3.1,80,0.00,,---,0.00,VWS V14.00,2013-09-15 11:16:00,
2013-09-15 04:22:00,59.2,53.0,29.56,NW,315,3.1,3.1,80,0.00,,---,0.00,VWS V14.00,2013-09-15 11:22:00,
2013-09-15 04:27:00,59.2,52.7,29.56,NNW,338,2.5,2.5,79,0.00,,---,0.00,VWS V14.00,2013-09-15 11:27:00,
2013-09-15 04:32:00,59.2,52.7,29.56,WNW,292,2.0,2.0,79,0.00,,---,0.00,VWS V14.00,2013-09-15 11:32:00,
2013-09-15 04:37:00,59.2,52.7,29.53,WNW,292,2.7,2.7,79,0.00,,---,0.00,VWS V14.00,2013-09-15 11:37:00,
2013-09-15 04:42:00,59.2,52.7,29.53,WNW,292,5.6,5.6,79,0.00,,---,0.00,VWS V14.00,2013-09-15 11:42:00,
2013-09-15 04:48:00,59.4,52.9,29.53,NW,315,5.4,5.4,79,0.00,,---,0.00,VWS V14.00,2013-09-15 11:48:00,
2013-09-15 04:54:00,59.4,52.9,29.56,WNW,292,4.3,4.3,79,0.00,,---,0.00,VWS V14.00,2013-09-15 11:54:00,
2013-09-15 05:00:00,59.4,52.9,29.56,WNW,292,4.3,4.3,79,0.00,,---,0.00,VWS V14.00,2013-09-15 12:00:00,
2013-09-15 05:06:00,59.5,53.0,29.56,WNW,292,3.4,3.4,79,0.00,,---,0.00,VWS V14.00,2013-09-15 12:06:00,
2013-09-15 05:11:00,59.5,53.0,29.56,NW,315,0.9,0.9,79,0.00,,---,0.00,VWS V14.00,2013-09-15 12:11:00,
2013-09-15 05:16:00,59.5,53.0,29.56,WNW,292,4.3,4.3,79,0.00,,---,0.00,VWS V14.00,2013-09-15 12:16:00,
2013-09-15 05:22:00,59.5,53.0,29.56,WNW,292,1.6,1.6,79,0.00,,---,0.00,VWS V14.00,2013-09-15 12:22:00,
2013-09-15 05:27:00,59.7,53.2,29.56,West,270,2.7,2.7,79,0.00,,---,0.00,VWS V14.00,2013-09-15 12:27:00,
2013-09-15 05:32:00,59.7,53.2,29.56,NW,315,2.2,3.6,79,0.00,,---,0.00,VWS V14.00,2013-09-15 12:32:00,
2013-09-15 05:37:00,59.7,53.2,29.56,East,90,0.0,2.7,79,0.00,,---,0.00,VWS V14.00,2013-09-15 12:37:00,
2013-09-15 05:42:00,59.7,53.2,29.56,WSW,248,0.0,0.0,79,0.00,,---,0.00,VWS V14.00,2013-09-15 12:42:00,
2013-09-15 05:47:00,59.7,53.2,29.56,ESE,112,1.6,1.6,79,0.00,,---,0.00,VWS V14.00,2013-09-15 12:47:00,
2013-09-15 05:52:00,59.7,53.2,29.56,NW,315,3.4,3.4,79,0.00,,---,0.00,VWS V14.00,2013-09-15 12:52:00,
2013-09-15 05:57:00,59.7,53.2,29.56,North,0,3.1,3.1,79,0.00,,---,0.00,VWS V14.00,2013-09-15 12:57:00,
2013-09-15 06:02:00,59.7,53.2,29.56,West,270,1.3,1.3,79,0.00,,---,0.00,VWS V14.00,2013-09-15 13:02:00,
2013-09-15 06:08:00,59.7,53.2,29.56,WSW,248,3.1,4.3,79,0.00,,---,0.00,VWS V14.00,2013-09-15 13:08:00,
2013-09-15 06:13:00,59.7,53.2,29.56,NNW,338,0.9,2.2,79,0.00,,---,0.00,VWS V14.00,2013-09-15 13:13:00,
2013-09-15 06:19:00,59.7,53.2,29.56,NW,315,2.5,2.5,79,0.00,,---,0.00,VWS V14.00,2013-09-15 13:19:00,
2013-09-15 06:24:00,59.7,53.2,29.56,NNW,338,0.0,2.7,79,0.00,,---,0.00,VWS V14.00,2013-09-15 13:24:00,
2013-09-15 06:29:00,59.7,53.2,29.56,SW,225,0.0,1.1,79,0.00,,---,0.00,VWS V14.00,2013-09-15 13:29:00,
2013-09-15 06:34:00,59.7,53.2,29.56,NW,315,1.1,1.1,79,0.00,,---,0.00,VWS V14.00,2013-09-15 13:34:00,
2013-09-15 06:40:00,59.9,53.4,29.56,SSW,202,0.0,0.0,79,0.00,,---,0.00,VWS V14.00,2013-09-15 13:40:00,
2013-09-15 06:45:00,59.9,53.4,29.56,SSW,202,0.0,0.9,79,0.00,,---,0.00,VWS V14.00,2013-09-15 13:45:00,
2013-09-15 06:50:00,59.9,53.4,29.56,WSW,248,0.0,0.0,79,0.00,,---,0.00,VWS V14.00,2013-09-15 13:50:00,
2013-09-15 06:55:00,59.9,53.4,29.56,SW,225,1.1,1.3,79,0.00,,---,0.00,VWS V14.00,2013-09-15 13:55:00,
2013-09-15 07:00:00,59.9,53.4,29.56,South,180,0.0,0.0,79,0.00,,---,0.00,VWS V14.00,2013-09-15 14:00:00,
2013-09-15 07:05:00,59.9,53.0,29.56,SSE,158,2.0,2.0,78,0.00,,---,0.00,VWS V14.00,2013-09-15 14:05:00,
2013-09-15 07:11:00,60.1,53.2,29.56,SSE,158,2.5,2.5,78,0.00,,---,0.00,VWS V14.00,2013-09-15 14:11:00,
2013-09-15 07:16:00,60.1,53.2,29.56,West,270,0.0,1.6,78,0.00,,---,0.00,VWS V14.00,2013-09-15 14:16:00,
2013-09-15 07:21:00,59.9,53.0,29.56,SW,225,1.3,1.3,78,0.00,,---,0.00,VWS V14.00,2013-09-15 14:21:00,
2013-09-15 07:26:00,59.9,53.0,29.56,SW,225,0.0,0.0,78,0.00,,---,0.00,VWS V14.00,2013-09-15 14:26:00,
2013-09-15 07:31:00,60.1,53.2,29.56,SSW,202,0.0,1.6,78,0.00,,---,0.00,VWS V14.00,2013-09-15 14:31:00,
2013-09-15 07:36:00,60.1,53.2,29.56,NW,315,3.8,3.8,78,0.00,,---,0.00,VWS V14.00,2013-09-15 14:36:00,
2013-09-15 07:41:00,60.1,53.2,29.56,NW,315,2.5,2.5,78,0.00,,---,0.00,VWS V14.00,2013-09-15 14:41:00,
2013-09-15 07:46:00,60.3,53.7,29.56,WNW,292,1.3,2.5,79,0.00,,---,0.00,VWS V14.00,2013-09-15 14:46:00,
2013-09-15 07:51:00,60.3,53.7,29.56,NNE,22,2.5,2.5,79,0.00,,---,0.00,VWS V14.00,2013-09-15 14:51:00,
2013-09-15 07:58:00,60.3,53.7,29.56,NW,315,4.0,4.0,79,0.00,,---,0.00,VWS V14.00,2013-09-15 14:58:00,
2013-09-15 08:04:00,60.3,53.7,29.56,NW,315,2.2,3.8,79,0.00,,---,0.00,VWS V14.00,2013-09-15 15:04:00,
2013-09-15 08:09:00,60.4,53.9,29.56,NNW,338,2.5,2.5,79,0.00,,---,0.00,VWS V14.00,2013-09-15 15:09:00,
2013-09-15 08:15:00,60.4,53.9,29.56,NW,315,1.6,3.8,79,0.00,,---,0.00,VWS V14.00,2013-09-15 15:15:00,
2013-09-15 08:20:00,60.4,53.9,29.56,WNW,292,2.9,2.9,79,0.00,,---,0.00,VWS V14.00,2013-09-15 15:20:00,
2013-09-15 08:26:00,60.8,54.3,29.56,WNW,292,4.0,4.0,79,0.00,,---,0.00,VWS V14.00,2013-09-15 15:26:00,
2013-09-15 08:31:00,61.0,54.4,29.56,NW,315,3.4,3.6,79,0.00,,---,0.00,VWS V14.00,2013-09-15 15:31:00,
2013-09-15 08:37:00,61.0,54.4,29.56,NW,315,2.5,2.5,79,0.00,,---,0.00,VWS V14.00,2013-09-15 15:37:00,
2013-09-15 08:42:00,61.3,54.8,29.56,NW,315,2.7,2.7,79,0.00,,---,0.00,VWS V14.00,2013-09-15 15:42:00,
2013-09-15 08:47:00,61.9,55.7,29.56,NW,315,4.0,4.0,80,0.00,,---,0.00,VWS V14.00,2013-09-15 15:47:00,
2013-09-15 08:52:00,62.2,56.0,29.59,WNW,292,1.1,1.1,80,0.00,,---,0.00,VWS V14.00,2013-09-15 15:52:00,
2013-09-15 08:58:00,62.2,55.7,29.59,South,180,2.2,2.2,79,0.00,,---,0.00,VWS V14.00,2013-09-15 15:58:00,
2013-09-15 09:03:00,62.2,55.7,29.59,NW,315,0.0,0.0,79,0.00,,---,0.00,VWS V14.00,2013-09-15 16:03:00,
2013-09-15 09:09:00,62.6,55.7,29.59,NW,315,3.6,3.6,78,0.00,,---,0.00,VWS V14.00,2013-09-15 16:09:00,
2013-09-15 09:14:00,62.6,55.7,29.59,NNW,338,1.1,1.1,78,0.00,,---,0.00,VWS V14.00,2013-09-15 16:14:00,
2013-09-15 09:19:00,62.8,55.8,29.59,NW,315,0.0,0.9,78,0.00,,---,0.00,VWS V14.00,2013-09-15 16:19:00,
2013-09-15 09:24:00,62.8,55.8,29.59,ESE,112,3.1,3.1,78,0.00,,---,0.00,VWS V14.00,2013-09-15 16:24:00,
2013-09-15 09:29:00,64.8,57.8,29.59,SSE,158,2.9,2.9,78,81.92,,---,81.92,VWS V14.00,2013-09-15 16:29:00,
2013-09-15 09:34:00,65.5,58.5,29.59,ENE,68,4.5,4.5,78,0.00,,---,0.00,VWS V14.00,2013-09-15 16:34:00,
2013-09-15 09:39:00,66.7,58.9,29.59,East,90,2.0,2.0,76,0.00,,---,0.00,VWS V14.00,2013-09-15 16:39:00,
2013-09-15 09:44:00,66.7,58.9,29.59,WNW,292,1.1,2.5,76,0.00,,---,0.00,VWS V14.00,2013-09-15 16:44:00,
2013-09-15 09:49:00,67.8,59.2,29.59,SSE,158,3.8,3.8,74,0.00,,---,0.00,VWS V14.00,2013-09-15 16:49:00,
2013-09-15 09:54:00,67.8,59.2,29.59,ESE,112,3.4,3.4,74,0.00,,---,0.00,VWS V14.00,2013-09-15 16:54:00,
2013-09-15 09:59:00,68.9,59.5,29.59,East,90,3.1,3.1,72,0.00,,---,0.00,VWS V14.00,2013-09-15 16:59:00,
2013-09-15 10:05:00,68.9,59.5,29.59,ESE,112,1.6,1.6,72,0.00,,---,0.00,VWS V14.00,2013-09-15 17:05:00,
2013-09-15 10:10:00,69.6,59.8,29.59,NNW,338,2.2,2.2,71,0.00,,---,0.00,VWS V14.00,2013-09-15 17:10:00,
2013-09-15 10:15:00,70.2,59.9,29.59,ENE,68,3.6,3.6,70,0.00,,---,0.00,VWS V14.00,2013-09-15 17:15:00,
2013-09-15 10:21:00,70.7,60.0,29.59,NW,315,1.3,1.3,69,0.00,,---,0.00,VWS V14.00,2013-09-15 17:21:00,
2013-09-15 10:27:00,70.9,59.8,29.59,NNE,22,2.2,2.2,68,0.00,,---,0.00,VWS V14.00,2013-09-15 17:27:00,
2013-09-15 10:32:00,71.1,60.0,29.59,SW,225,0.0,0.0,68,0.00,,---,0.00,VWS V14.00,2013-09-15 17:32:00,
2013-09-15 10:37:00,71.1,60.0,29.59,NNW,338,1.1,4.3,68,0.00,,---,0.00,VWS V14.00,2013-09-15 17:37:00,
2013-09-15 10:42:00,71.1,60.0,29.59,NNW,338,1.1,1.1,68,0.00,,---,0.00,VWS V14.00,2013-09-15 17:42:00,
2013-09-15 10:47:00,72.1,60.2,29.59,South,180,1.6,1.6,66,0.00,,---,0.00,VWS V14.00,2013-09-15 17:47:00,
2013-09-15 10:52:00,72.5,60.1,29.59,SE,135,1.1,3.6,65,0.00,,---,0.00,VWS V14.00,2013-09-15 17:52:00,
2013-09-15 10:57:00,72.5,60.1,29.59,WNW,292,2.7,4.0,65,0.00,,---,0.00,VWS V14.00,2013-09-15 17:57:00,
2013-09-15 11:03:00,72.7,59.8,29.59,South,180,1.6,2.7,64,0.00,,---,0.00,VWS V14.00,2013-09-15 18:03:00,
2013-09-15 11:08:00,72.7,59.4,29.59,North,0,1.3,2.5,63,0.00,,---,0.00,VWS V14.00,2013-09-15 18:08:00,
2013-09-15 11:13:00,72.9,60.0,29.59,NNW,338,2.2,2.2,64,0.00,,---,0.00,VWS V14.00,2013-09-15 18:13:00,
2013-09-15 11:18:00,73.2,59.9,29.59,WNW,292,2.5,2.5,63,0.00,,---,0.00,VWS V14.00,2013-09-15 18:18:00,
2013-09-15 11:23:00,73.6,59.8,29.59,NW,315,2.2,2.2,62,0.00,,---,0.00,VWS V14.00,2013-09-15 18:23:00,
2013-09-15 11:28:00,73.6,59.8,29.59,SE,135,1.6,2.5,62,0.00,,---,0.00,VWS V14.00,2013-09-15 18:28:00,
2013-09-15 11:33:00,73.8,59.5,29.59,NNE,22,2.0,5.6,61,0.00,,---,0.00,VWS V14.00,2013-09-15 18:33:00,
2013-09-15 11:38:00,73.9,59.7,29.59,ENE,68,3.1,3.1,61,0.00,,---,0.00,VWS V14.00,2013-09-15 18:38:00,
2013-09-15 11:43:00,74.1,59.8,29.59,NW,315,0.0,0.0,61,0.00,,---,0.00,VWS V14.00,2013-09-15 18:43:00,
2013-09-15 11:48:00,74.5,59.7,29.59,NNW,338,0.9,2.0,60,0.00,,---,0.00,VWS V14.00,2013-09-15 18:48:00,
2013-09-15 11:53:00,74.7,59.9,29.59,North,0,2.0,2.7,60,0.00,,---,0.00,VWS V14.00,2013-09-15 18:53:00,
2013-09-15 11:58:00,74.7,59.9,29.59,SSE,158,0.9,0.9,60,0.00,,---,0.00,VWS V14.00,2013-09-15 18:58:00,
2013-09-15 12:03:00,74.8,60.0,29.59,NNW,338,2.7,2.7,60,0.00,,---,0.00,VWS V14.00,2013-09-15 19:03:00,
2013-09-15 12:08:00,75.4,60.1,29.59,WNW,292,2.7,2.7,59,0.00,,---,0.00,VWS V14.00,2013-09-15 19:08:00,
2013-09-15 12:14:00,75.4,60.1,29.59,NW,315,2.2,2.2,59,0.00,,---,0.00,VWS V14.00,2013-09-15 19:14:00,
2013-09-15 12:19:00,75.7,59.9,29.59,NNE,22,3.1,3.1,58,0.00,,---,0.00,VWS V14.00,2013-09-15 19:19:00,
2013-09-15 12:22:00,75.9,60.1,29.59,NE,45,3.8,3.8,58,0.00,,---,0.00,VWS V14.00,2013-09-15 19:22:00,
2013-09-15 12:27:00,75.9,59.6,29.59,SSW,202,0.9,0.9,57,0.00,,---,0.00,VWS V14.00,2013-09-15 19:27:00,
2013-09-15 12:32:00,76.1,59.8,29.59,North,0,2.5,2.5,57,0.00,,---,0.00,VWS V14.00,2013-09-15 19:32:00,
2013-09-15 12:37:00,76.1,59.3,29.59,ESE,112,4.0,4.7,56,0.00,,---,0.00,VWS V14.00,2013-09-15 19:37:00,
2013-09-15 12:42:00,76.1,59.3,29.59,WSW,248,2.0,2.2,56,0.00,,---,0.00,VWS V14.00,2013-09-15 19:42:00,
2013-09-15 12:47:00,76.3,58.9,29.59,North,0,2.0,2.0,55,0.00,,---,0.00,VWS V14.00,2013-09-15 19:47:00,
2013-09-15 12:52:00,76.8,60.0,29.62,ESE,112,2.0,2.5,56,0.00,,---,0.00,VWS V14.00,2013-09-15 19:52:00,
2013-09-15 12:57:00,77.2,59.8,29.62,ESE,112,2.5,4.0,55,0.00,,---,0.00,VWS V14.00,2013-09-15 19:57:00,
2013-09-15 13:02:00,77.2,59.8,29.62,SE,135,2.5,2.5,55,0.00,,---,0.00,VWS V14.00,2013-09-15 20:02:00,
2013-09-15 13:07:00,77.2,59.8,29.62,NNE,22,4.3,4.3,55,0.00,,---,0.00,VWS V14.00,2013-09-15 20:07:00,
2013-09-15 13:12:00,77.2,59.8,29.62,NNW,338,2.5,2.5,55,0.00,,---,0.00,VWS V14.00,2013-09-15 20:12:00,
2013-09-15 13:17:00,78.8,60.8,29.62,SW,225,1.1,1.1,54,0.00,,---,0.00,VWS V14.00,2013-09-15 20:17:00,
2013-09-15 13:22:00,78.6,60.1,29.59,North,0,2.9,2.9,53,0.00,,---,0.00,VWS V14.00,2013-09-15 20:22:00,
2013-09-15 13:27:00,78.6,60.1,29.59,ENE,68,0.0,3.4,53,0.00,,---,0.00,VWS V14.00,2013-09-15 20:27:00,
2013-09-15 13:32:00,78.8,60.2,29.59,NNE,22,5.6,5.6,53,0.00,,---,0.00,VWS V14.00,2013-09-15 20:32:00,
2013-09-15 13:37:00,79.5,60.4,29.59,NNW,338,1.6,1.6,52,0.00,,---,0.00,VWS V14.00,2013-09-15 20:37:00,
2013-09-15 13:43:00,79.5,60.4,29.59,North,0,1.6,1.6,52,0.00,,---,0.00,VWS V14.00,2013-09-15 20:43:00,
2013-09-15 13:48:00,80.4,60.7,29.59,NNE,22,1.3,1.3,51,0.00,,---,0.00,VWS V14.00,2013-09-15 20:48:00,
2013-09-15 13:53:00,80.6,60.8,29.59,NNE,22,1.3,3.1,51,0.00,,---,0.00,VWS V14.00,2013-09-15 20:53:00,
2013-09-15 13:58:00,80.8,60.4,29.59,NNE,22,2.9,2.9,50,0.00,,---,0.00,VWS V14.00,2013-09-15 20:58:00,
2013-09-15 14:04:00,81.1,60.8,29.59,North,0,2.7,2.7,50,0.00,,---,0.00,VWS V14.00,2013-09-15 21:04:00,
2013-09-15 14:09:00,81.3,60.3,29.59,NW,315,3.8,3.8,49,0.00,,---,0.00,VWS V14.00,2013-09-15 21:09:00,
2013-09-15 14:15:00,81.3,59.8,29.59,West,270,2.5,5.4,48,0.00,,---,0.00,VWS V14.00,2013-09-15 21:15:00,
2013-09-15 14:20:00,81.7,60.7,29.59,NNE,22,0.9,1.6,49,0.00,,---,0.00,VWS V14.00,2013-09-15 21:20:00,
2013-09-15 14:25:00,81.7,60.7,29.59,NNE,22,0.9,0.9,49,0.00,,---,0.00,VWS V14.00,2013-09-15 21:25:00,
2013-09-15 14:30:00,81.7,59.5,29.59,WNW,292,5.4,5.4,47,0.00,,---,0.00,VWS V14.00,2013-09-15 21:30:00,
2013-09-15 14:36:00,82.0,59.8,29.59,NNW,338,2.5,2.5,47,0.00,,---,0.00,VWS V14.00,2013-09-15 21:36:00,
2013-09-15 14:41:00,82.4,60.2,29.59,NW,315,8.7,8.7,47,0.00,,---,0.00,VWS V14.00,2013-09-15 21:41:00,
2013-09-15 14:47:00,82.4,60.2,29.59,NW,315,4.5,4.5,47,0.00,,---,0.00,VWS V14.00,2013-09-15 21:47:00,
2013-09-15 14:52:00,82.8,59.9,29.59,WNW,292,6.3,6.3,46,0.00,,---,0.00,VWS V14.00,2013-09-15 21:52:00,
2013-09-15 14:57:00,82.9,60.0,29.59,North,0,6.5,7.4,46,0.00,,---,0.00,VWS V14.00,2013-09-15 21:57:00,
2013-09-15 15:02:00,83.1,59.6,29.59,West,270,5.8,5.8,45,0.00,,---,0.00,VWS V14.00,2013-09-15 22:02:00,
2013-09-15 15:07:00,83.5,59.9,29.56,WNW,292,11.0,11.0,45,0.00,,---,0.00,VWS V14.00,2013-09-15 22:07:00,
2013-09-15 15:12:00,83.5,59.9,29.56,NW,315,5.4,6.0,45,0.00,,---,0.00,VWS V14.00,2013-09-15 22:12:00,
2013-09-15 15:17:00,83.5,59.3,29.56,NW,315,3.6,4.9,44,0.00,,---,0.00,VWS V14.00,2013-09-15 22:17:00,
2013-09-15 15:22:00,83.5,59.3,29.56,WSW,248,3.8,7.4,44,0.00,,---,0.00,VWS V14.00,2013-09-15 22:22:00,
2013-09-15 15:27:00,83.5,59.3,29.56,West,270,3.8,4.3,44,0.00,,---,0.00,VWS V14.00,2013-09-15 22:27:00,
2013-09-15 15:32:00,83.3,59.1,29.56,NNW,338,4.0,6.0,44,0.00,,---,0.00,VWS V14.00,2013-09-15 22:32:00,
2013-09-15 15:38:00,83.1,59.0,29.59,NW,315,4.3,4.3,44,0.00,,---,0.00,VWS V14.00,2013-09-15 22:38:00,
2013-09-15 15:43:00,82.8,58.7,29.59,NW,315,4.3,8.5,44,0.00,,---,0.00,VWS V14.00,2013-09-15 22:43:00,
2013-09-15 15:48:00,82.8,58.0,29.59,WNW,292,4.7,4.7,43,0.00,,---,0.00,VWS V14.00,2013-09-15 22:48:00,
2013-09-15 15:53:00,82.4,58.3,29.59,NNE,22,4.9,5.4,44,0.00,,---,0.00,VWS V14.00,2013-09-15 22:53:00,
2013-09-15 15:58:00,81.9,57.8,29.62,WNW,292,7.4,7.4,44,0.00,,---,0.00,VWS V14.00,2013-09-15 22:58:00,
2013-09-15 16:03:00,81.3,57.3,29.62,NW,315,5.8,5.8,44,0.00,,---,0.00,VWS V14.00,2013-09-15 23:03:00,
2013-09-15 16:08:00,81.0,57.6,29.62,NNW,338,6.9,9.2,45,0.00,,---,0.00,VWS V14.00,2013-09-15 23:08:00,
2013-09-15 16:13:00,80.6,57.3,29.62,NNW,338,8.5,8.5,45,0.00,,---,0.00,VWS V14.00,2013-09-15 23:13:00,
2013-09-15 16:19:00,81.0,57.6,29.62,NW,315,4.3,9.0,45,0.00,,---,0.00,VWS V14.00,2013-09-15 23:19:00,
2013-09-15 16:24:00,80.8,57.5,29.62,WNW,292,12.3,12.3,45,0.00,,---,0.00,VWS V14.00,2013-09-15 23:24:00,
2013-09-15 16:29:00,80.6,57.3,29.62,WNW,292,7.8,8.1,45,0.00,,---,0.00,VWS V14.00,2013-09-15 23:29:00,
2013-09-15 16:34:00,80.6,57.3,29.62,NNW,338,6.7,10.7,45,0.00,,---,0.00,VWS V14.00,2013-09-15 23:34:00,
2013-09-15 16:39:00,80.2,57.0,29.62,North,0,7.8,8.1,45,0.00,,---,0.00,VWS V14.00,2013-09-15 23:39:00,
2013-09-15 16:44:00,80.2,57.0,29.62,WNW,292,5.6,8.1,45,0.00,,---,0.00,VWS V14.00,2013-09-15 23:44:00,
2013-09-15 16:49:00,80.1,57.4,29.62,North,0,7.4,7.4,46,0.00,,---,0.00,VWS V14.00,2013-09-15 23:49:00,
2013-09-15 16:54:00,79.7,56.5,29.62,WNW,292,5.6,7.2,45,0.00,,---,0.00,VWS V14.00,2013-09-15 23:54:00,
2013-09-15 16:59:00,79.7,56.5,29.62,WNW,292,8.7,8.7,45,0.00,,---,0.00,VWS V14.00,2013-09-15 23:59:00,
2013-09-15 17:04:00,79.3,56.2,29.59,NW,315,5.4,5.4,45,0.00,,---,0.00,VWS V14.00,2013-09-16 00:04:00,
2013-09-15 17:09:00,79.3,56.2,29.59,WNW,292,7.2,9.6,45,0.00,,---,0.00,VWS V14.00,2013-09-16 00:09:00,
2013-09-15 17:14:00,78.8,56.3,29.59,WNW,292,5.4,5.4,46,0.00,,---,0.00,VWS V14.00,2013-09-16 00:14:00,
2013-09-15 17:19:00,78.8,56.3,29.59,NNW,338,3.8,10.7,46,0.00,,---,0.00,VWS V14.00,2013-09-16 00:19:00,
2013-09-15 17:25:00,78.8,56.3,29.59,NNW,338,6.5,6.5,46,0.00,,---,0.00,VWS V14.00,2013-09-16 00:25:00,
2013-09-15 17:30:00,78.1,55.6,29.59,NW,315,8.1,8.1,46,0.00,,---,0.00,VWS V14.00,2013-09-16 00:30:00,
2013-09-15 17:35:00,77.7,55.3,29.56,NW,315,6.3,6.3,46,0.00,,---,0.00,VWS V14.00,2013-09-16 00:35:00,
2013-09-15 17:41:00,77.5,55.2,29.56,North,0,3.8,5.6,46,0.00,,---,0.00,VWS V14.00,2013-09-16 00:41:00,
2013-09-15 17:46:00,77.0,55.2,29.56,North,0,3.1,3.1,47,0.00,,---,0.00,VWS V14.00,2013-09-16 00:46:00,
2013-09-15 17:51:00,76.8,55.1,29.56,WNW,292,5.4,5.4,47,0.00,,---,0.00,VWS V14.00,2013-09-16 00:51:00,
2013-09-15 17:56:00,76.8,55.1,29.56,NW,315,7.4,9.8,47,0.00,,---,0.00,VWS V14.00,2013-09-16 00:56:00,
2013-09-15 18:01:00,76.8,55.1,29.56,WNW,292,3.6,10.3,47,0.00,,---,0.00,VWS V14.00,2013-09-16 01:01:00,
2013-09-15 18:06:00,75.4,54.3,29.56,NW,315,2.9,7.2,48,0.00,,---,0.00,VWS V14.00,2013-09-16 01:06:00,
2013-09-15 18:12:00,75.2,54.2,29.56,WNW,292,6.0,6.0,48,0.00,,---,0.00,VWS V14.00,2013-09-16 01:12:00,
2013-09-15 18:17:00,74.5,54.1,29.56,West,270,6.3,11.4,49,0.00,,---,0.00,VWS V14.00,2013-09-16 01:17:00,
2013-09-15 18:22:00,74.3,54.5,29.56,West,270,5.8,7.6,50,0.00,,---,0.00,VWS V14.00,2013-09-16 01:22:00,
2013-09-15 18:27:00,73.6,53.8,29.56,NW,315,3.6,12.1,50,0.00,,---,0.00,VWS V14.00,2013-09-16 01:27:00,
2013-09-15 18:32:00,73.6,53.8,29.56,NNW,338,10.1,10.1,50,0.00,,---,0.00,VWS V14.00,2013-09-16 01:32:00,
2013-09-15 18:37:00,72.7,54.1,29.56,West,270,6.3,6.3,52,0.00,,---,0.00,VWS V14.00,2013-09-16 01:37:00,
2013-09-15 18:42:00,72.7,54.1,29.56,NNW,338,6.5,6.5,52,0.00,,---,0.00,VWS V14.00,2013-09-16 01:42:00,
2013-09-15 18:47:00,71.8,54.3,29.56,NNW,338,3.6,3.6,54,0.00,,---,0.00,VWS V14.00,2013-09-16 01:47:00,
2013-09-15 18:52:00,71.2,54.3,29.56,NW,315,12.5,13.2,55,0.00,,---,0.00,VWS V14.00,2013-09-16 01:52:00,
2013-09-15 18:57:00,71.1,54.1,29.56,WSW,248,7.4,7.4,55,0.00,,---,0.00,VWS V14.00,2013-09-16 01:57:00,
2013-09-15 19:02:00,70.9,54.4,29.56,NNW,338,6.0,7.4,56,0.00,,---,0.00,VWS V14.00,2013-09-16 02:02:00,
2013-09-15 19:07:00,70.3,54.4,29.56,NW,315,2.9,4.3,57,0.00,,---,0.00,VWS V14.00,2013-09-16 02:07:00,
2013-09-15 19:13:00,70.3,54.9,29.56,WNW,292,4.9,4.9,58,0.00,,---,0.00,VWS V14.00,2013-09-16 02:13:00,
2013-09-15 19:18:00,70.3,55.3,29.56,West,270,3.6,5.8,59,0.00,,---,0.00,VWS V14.00,2013-09-16 02:18:00,
2013-09-15 19:23:00,70.2,55.2,29.56,NNW,338,4.0,5.4,59,0.00,,---,0.00,VWS V14.00,2013-09-16 02:23:00,
2013-09-15 19:28:00,70.0,55.5,29.56,NW,315,3.6,3.6,60,0.00,,---,0.00,VWS V14.00,2013-09-16 02:28:00,
2013-09-15 19:33:00,70.0,55.5,29.56,WNW,292,4.3,4.3,60,0.00,,---,0.00,VWS V14.00,2013-09-16 02:33:00,
2013-09-15 19:46:00,69.3,55.7,29.56,WNW,292,1.1,1.1,62,0.00,,---,0.00,VWS V14.00,2013-09-16 02:46:00,
2013-09-15 19:51:00,69.1,55.5,29.59,NW,315,2.5,2.9,62,0.00,,---,0.00,VWS V14.00,2013-09-16 02:51:00,
2013-09-15 19:56:00,68.7,55.2,29.59,WNW,292,2.0,2.9,62,0.00,,---,0.00,VWS V14.00,2013-09-16 02:56:00,
2013-09-15 20:01:00,68.5,55.5,29.59,West,270,0.0,0.0,63,0.00,,---,0.00,VWS V14.00,2013-09-16 03:01:00,
2013-09-15 20:07:00,68.5,55.5,29.59,NNE,22,0.0,0.0,63,0.00,,---,0.00,VWS V14.00,2013-09-16 03:07:00,
2013-09-15 20:12:00,68.4,55.7,29.59,NNE,22,0.0,0.0,64,0.00,,---,0.00,VWS V14.00,2013-09-16 03:12:00,
2013-09-15 20:17:00,68.2,55.5,29.59,NNE,22,0.0,0.0,64,0.00,,---,0.00,VWS V14.00,2013-09-16 03:17:00,
2013-09-15 20:22:00,67.8,55.2,29.59,North,0,0.0,0.0,64,0.00,,---,0.00,VWS V14.00,2013-09-16 03:22:00,
2013-09-15 20:29:00,67.8,55.6,29.59,North,0,0.0,0.0,65,0.00,,---,0.00,VWS V14.00,2013-09-16 03:29:00,
2013-09-15 20:34:00,67.5,55.3,29.59,North,0,0.0,0.0,65,0.00,,---,0.00,VWS V14.00,2013-09-16 03:34:00,
2013-09-15 20:39:00,67.5,55.7,29.59,North,0,0.0,0.0,66,0.00,,---,0.00,VWS V14.00,2013-09-16 03:39:00,
2013-09-15 20:45:00,67.3,55.5,29.59,NW,315,1.6,1.6,66,0.00,,---,0.00,VWS V14.00,2013-09-16 03:45:00,
2013-09-15 20:50:00,66.9,55.2,29.59,NW,315,0.0,0.0,66,0.00,,---,0.00,VWS V14.00,2013-09-16 03:50:00,
2013-09-15 20:56:00,66.7,55.0,29.59,NW,315,0.0,0.0,66,0.00,,---,0.00,VWS V14.00,2013-09-16 03:56:00,
2013-09-15 21:01:00,66.6,55.3,29.59,NW,315,0.0,0.0,67,0.00,,---,0.00,VWS V14.00,2013-09-16 04:01:00,
2013-09-15 21:03:00,66.6,55.3,29.59,NW,315,0.0,0.0,67,0.00,,---,0.00,VWS V14.00,2013-09-16 04:03:00,
2013-09-15 21:08:00,66.6,55.3,29.59,NW,315,0.0,0.0,67,0.00,,---,0.00,VWS V14.00,2013-09-16 04:08:00,
2013-09-15 21:11:00,66.4,55.1,29.59,NW,315,0.0,0.0,67,0.00,,---,0.00,VWS V14.00,2013-09-16 04:11:00,
2013-09-15 21:16:00,66.4,55.5,29.59,NW,315,0.0,0.0,68,0.00,,---,0.00,VWS V14.00,2013-09-16 04:16:00,
2013-09-15 21:21:00,66.2,55.3,29.59,NW,315,0.0,0.0,68,0.00,,---,0.00,VWS V14.00,2013-09-16 04:21:00,
2013-09-15 21:28:00,66.0,55.2,29.59,NW,315,0.0,0.0,68,0.00,,---,0.00,VWS V14.00,2013-09-16 04:28:00,
2013-09-15 21:33:00,65.8,55.4,29.59,West,270,0.0,0.9,69,0.00,,---,0.00,VWS V14.00,2013-09-16 04:33:00,
2013-09-15 21:39:00,65.8,55.4,29.59,WSW,248,2.7,2.7,69,0.00,,---,0.00,VWS V14.00,2013-09-16 04:39:00,
2013-09-15 21:44:00,65.7,55.2,29.59,NW,315,2.5,2.7,69,0.00,,---,0.00,VWS V14.00,2013-09-16 04:44:00,
2013-09-15 21:49:00,65.7,55.6,29.59,NNW,338,2.7,2.7,70,0.00,,---,0.00,VWS V14.00,2013-09-16 04:49:00,
2013-09-15 21:54:00,65.5,55.5,29.59,WNW,292,3.4,3.4,70,0.00,,---,0.00,VWS V14.00,2013-09-16 04:54:00,
2013-09-15 21:59:00,65.5,55.5,29.59,WNW,292,1.1,3.4,70,0.00,,---,0.00,VWS V14.00,2013-09-16 04:59:00,
2013-09-15 22:04:00,65.5,55.5,29.59,WNW,292,2.0,2.0,70,0.00,,---,0.00,VWS V14.00,2013-09-16 05:04:00,
2013-09-15 22:10:00,65.3,55.7,29.59,WNW,292,3.1,3.1,71,0.00,,---,0.00,VWS V14.00,2013-09-16 05:10:00,
2013-09-15 22:15:00,65.1,55.5,29.59,NW,315,2.2,2.2,71,0.00,,---,0.00,VWS V14.00,2013-09-16 05:15:00,
2013-09-15 22:20:00,65.1,55.5,29.59,NNW,338,1.3,2.2,71,0.00,,---,0.00,VWS V14.00,2013-09-16 05:20:00,
2013-09-15 22:27:00,64.9,55.7,29.59,South,180,1.3,1.3,72,0.00,,---,0.00,VWS V14.00,2013-09-16 05:27:00,
2013-09-15 22:32:00,65.1,55.9,29.59,SSW,202,0.9,1.3,72,0.00,,---,0.00,VWS V14.00,2013-09-16 05:32:00,
2013-09-15 22:37:00,65.1,55.9,29.62,South,180,1.1,1.1,72,0.00,,---,0.00,VWS V14.00,2013-09-16 05:37:00,
2013-09-15 22:42:00,64.9,55.7,29.62,SSE,158,2.0,2.0,72,0.00,,---,0.00,VWS V14.00,2013-09-16 05:42:00,
2013-09-15 22:47:00,64.8,55.5,29.62,South,180,0.0,0.0,72,0.00,,---,0.00,VWS V14.00,2013-09-16 05:47:00,
2013-09-15 22:52:00,64.6,55.4,29.62,SSE,158,0.0,0.0,72,0.00,,---,0.00,VWS V14.00,2013-09-16 05:52:00,
2013-09-15 22:57:00,64.4,55.2,29.62,SW,225,1.1,1.1,72,0.00,,---,0.00,VWS V14.00,2013-09-16 05:57:00,
2013-09-15 23:03:00,64.2,55.0,29.62,SW,225,0.0,0.0,72,0.00,,---,0.00,VWS V14.00,2013-09-16 06:03:00,
2013-09-15 23:08:00,64.2,55.4,29.62,South,180,0.0,0.0,73,0.00,,---,0.00,VWS V14.00,2013-09-16 06:08:00,
2013-09-15 23:13:00,64.0,55.2,29.62,WSW,248,0.0,0.0,73,0.00,,---,0.00,VWS V14.00,2013-09-16 06:13:00,
2013-09-15 23:18:00,63.9,55.0,29.62,South,180,2.0,2.0,73,0.00,,---,0.00,VWS V14.00,2013-09-16 06:18:00,
2013-09-15 23:24:00,64.0,55.2,29.62,South,180,0.0,0.0,73,0.00,,---,0.00,VWS V14.00,2013-09-16 06:24:00,
2013-09-15 23:29:00,63.9,55.0,29.62,West,270,0.0,0.0,73,0.00,,---,0.00,VWS V14.00,2013-09-16 06:29:00,
2013-09-15 23:34:00,63.7,54.9,29.62,SSW,202,0.0,1.6,73,0.00,,---,0.00,VWS V14.00,2013-09-16 06:34:00,
2013-09-15 23:40:00,63.5,54.7,29.62,WSW,248,0.0,0.0,73,0.00,,---,0.00,VWS V14.00,2013-09-16 06:40:00,
2013-09-15 23:45:00,63.5,55.1,29.62,West,270,0.0,0.0,74,0.00,,---,0.00,VWS V14.00,2013-09-16 06:45:00,
2013-09-15 23:52:00,63.5,55.1,29.62,WNW,292,1.3,1.3,74,0.00,,---,0.00,VWS V14.00,2013-09-16 06:52:00,
2013-09-15 23:57:00,63.3,54.9,29.62,NW,315,0.9,0.9,74,0.00,,---,0.00,VWS V14.00,2013-09-16 06:57:00,